Terminal Aerodrome Forecast
Issued by NWS

Home | Current Version | Previous Version | Text Only | Print | Product List | Glossary Off
Versions: 1 2 3 4 5 6 7 8 9 10 11 12 13 14

000
FTUS43 KMPX 102300
TAFAXN
TAF
KAXN 102337Z 1100/1124 16011KT P6SM VCSH SCT050 OVC080
      TEMPO 1102/1106 4SM TSRA OVC035CB
     FM110800 18009KT P6SM -SHRA BKN035 OVC060
     FM111300 20008KT P6SM SCT040 BKN070 PROB30 1121/1124 4SM TSRA
      BKN040CB=

USA.gov is the U.S. government's official web portal to all federal, state and local government web resources and services.